Terminal Aerodrome Forecast
Issued by NWS Corpus Christi, TX

Home | Current Version | Previous Version | Text Only | Print | Product List | Glossary On
Versions: 1 2 3 4 5 6 7 8 9 10 11 12 13 14 15 16 17 18
000
FTUS44 KCRP 241100
TAFCRP
TAF
KCRP 241131Z 2412/2512 17011KT P6SM BKN015
     FM241600 15015KT P6SM SCT030 BKN050
     FM250200 14010KT P6SM BKN011
     FM250700 VRB04KT 5SM BR OVC007=

USA.gov is the U.S. government's official web portal to all federal, state and local government web resources and services.